sensor_id;sensor_type;location;lat;lon;timestamp;pressure;altitude;pressure_sealevel;temperature;humidity
62333;BME280;48624;49.812;8.562;2023-03-01T00:00:20;101724.03;;;-1.23;71.65
62333;BME280;48624;49.812;8.562;2023-03-01T00:02:45;101718.84;;;-1.33;72.17
62333;BME280;48624;49.812;8.562;2023-03-01T00:05:11;101721.41;;;-1.48;73.35
62333;BME280;48624;49.812;8.562;2023-03-01T00:07:36;101721.44;;;-1.28;72.26
62333;BME280;48624;49.812;8.562;2023-03-01T00:10:02;101726.66;;;-1.33;72.04
62333;BME280;48624;49.812;8.562;2023-03-01T00:12:27;101733.53;;;-1.44;72.94
62333;BME280;48624;49.812;8.562;2023-03-01T00:14:52;101726.56;;;-1.58;73.58
62333;BME280;48624;49.812;8.562;2023-03-01T00:17:18;101724.94;;;-1.21;71.07
62333;BME280;48624;49.812;8.562;2023-03-01T00:19:43;101724.03;;;-1.34;72.03
62333;BME280;48624;49.812;8.562;2023-03-01T00:22:10;101722.19;;;-1.74;74.17
62333;BME280;48624;49.812;8.562;2023-03-01T00:24:35;101732.56;;;-1.71;74.14
62333;BME280;48624;49.812;8.562;2023-03-01T00:27:00;101727.41;;;-1.57;73.44
62333;BME280;48624;49.812;8.562;2023-03-01T00:29:25;101717.84;;;-1.74;74.63
62333;BME280;48624;49.812;8.562;2023-03-01T00:31:51;101726.50;;;-1.78;74.99
62333;BME280;48624;49.812;8.562;2023-03-01T00:34:16;101722.13;;;-1.85;74.88
62333;BME280;48624;49.812;8.562;2023-03-01T00:36:42;101720.47;;;-1.74;74.29
62333;BME280;48624;49.812;8.562;2023-03-01T00:39:11;101718.75;;;-1.64;73.54
62333;BME280;48624;49.812;8.562;2023-03-01T00:41:37;101717.75;;;-1.94;75.44
62333;BME280;48624;49.812;8.562;2023-03-01T00:44:02;101710.06;;;-1.72;74.00
62333;BME280;48624;49.812;8.562;2023-03-01T00:46:28;101705.69;;;-1.78;74.48
62333;BME280;48624;49.812;8.562;2023-03-01T00:48:55;101712.63;;;-1.77;75.14
62333;BME280;48624;49.812;8.562;2023-03-01T00:51:24;101710.91;;;-1.79;74.90
62333;BME280;48624;49.812;8.562;2023-03-01T00:53:51;101706.66;;;-1.56;73.32
62333;BME280;48624;49.812;8.562;2023-03-01T00:56:17;101710.13;;;-1.50;73.18
62333;BME280;48624;49.812;8.562;2023-03-01T00:58:42;101703.94;;;-1.84;74.80
62333;BME280;48624;49.812;8.562;2023-03-01T01:01:17;101703.03;;;-1.95;75.41
62333;BME280;48624;49.812;8.562;2023-03-01T01:03:46;101698.78;;;-1.71;74.03
62333;BME280;48624;49.812;8.562;2023-03-01T01:06:17;101690.94;;;-1.91;75.39
62333;BME280;48624;49.812;8.562;2023-03-01T01:08:42;101689.16;;;-2.03;76.06
62333;BME280;48624;49.812;8.562;2023-03-01T01:11:09;101685.66;;;-2.10;76.77
62333;BME280;48624;49.812;8.562;2023-03-01T01:13:35;101666.56;;;-2.23;77.28
62333;BME280;48624;49.812;8.562;2023-03-01T01:16:01;101668.38;;;-2.00;75.96
62333;BME280;48624;49.812;8.562;2023-03-01T01:18:26;101657.22;;;-1.70;74.13
62333;BME280;48624;49.812;8.562;2023-03-01T01:20:52;101657.16;;;-1.93;75.31
62333;BME280;48624;49.812;8.562;2023-03-01T01:23:17;101650.97;;;-2.20;77.43
62333;BME280;48624;49.812;8.562;2023-03-01T01:25:42;101652.72;;;-2.22;77.36
62333;BME280;48624;49.812;8.562;2023-03-01T01:28:08;101650.97;;;-2.31;78.09
62333;BME280;48624;49.812;8.562;2023-03-01T01:30:33;101649.16;;;-2.46;78.85
62333;BME280;48624;49.812;8.562;2023-03-01T01:32:58;101650.03;;;-2.41;78.33
62333;BME280;48624;49.812;8.562;2023-03-01T01:35:24;101644.03;;;-2.30;78.45
62333;BME280;48624;49.812;8.562;2023-03-01T01:37:49;101663.03;;;-2.34;79.78
62333;BME280;48624;49.812;8.562;2023-03-01T01:40:15;101660.41;;;-2.38;79.71
62333;BME280;48624;49.812;8.562;2023-03-01T01:42:40;101650.13;;;-2.25;78.71
62333;BME280;48624;49.812;8.562;2023-03-01T01:47:51;101635.31;;;-2.39;79.68
62333;BME280;48624;49.812;8.562;2023-03-01T01:50:18;101636.25;;;-2.27;78.65
62333;BME280;48624;49.812;8.562;2023-03-01T01:52:44;101641.41;;;-2.33;79.21
62333;BME280;48624;49.812;8.562;2023-03-01T01:55:15;101630.09;;;-2.48;80.12
62333;BME280;48624;49.812;8.562;2023-03-01T01:57:46;101637.81;;;-2.57;80.98
62333;BME280;48624;49.812;8.562;2023-03-01T02:00:19;101630.91;;;-2.60;81.08
62333;BME280;48624;49.812;8.562;2023-03-01T02:02:47;101630.88;;;-2.61;82.24
62333;BME280;48624;49.812;8.562;2023-03-01T02:08:14;101629.97;;;-2.68;82.80
62333;BME280;48624;49.812;8.562;2023-03-01T02:10:42;101635.19;;;-2.63;82.75
62333;BME280;48624;49.812;8.562;2023-03-01T02:13:07;101655.06;;;-2.67;83.37
62333;BME280;48624;49.812;8.562;2023-03-01T02:15:34;101633.44;;;-2.66;83.47
62333;BME280;48624;49.812;8.562;2023-03-01T02:18:00;101651.59;;;-2.68;83.15
62333;BME280;48624;49.812;8.562;2023-03-01T02:20:34;101639.53;;;-2.62;82.84
62333;BME280;48624;49.812;8.562;2023-03-01T02:23:04;101643.19;;;-2.26;80.86
62333;BME280;48624;49.812;8.562;2023-03-01T02:25:36;101641.44;;;-2.26;80.85
62333;BME280;48624;49.812;8.562;2023-03-01T02:30:48;101634.63;;;-2.00;79.40
62333;BME280;48624;49.812;8.562;2023-03-01T02:33:34;101631.06;;;-2.32;80.32
62333;BME280;48624;49.812;8.562;2023-03-01T02:36:03;101625.06;;;-2.11;79.41
62333;BME280;48624;49.812;8.562;2023-03-01T02:38:31;101628.47;;;-2.27;80.13
62333;BME280;48624;49.812;8.562;2023-03-01T02:40:57;101624.25;;;-1.91;77.55
62333;BME280;48624;49.812;8.562;2023-03-01T02:43:27;101623.38;;;-1.95;78.57
62333;BME280;48624;49.812;8.562;2023-03-01T02:46:02;101621.53;;;-2.28;80.17
62333;BME280;48624;49.812;8.562;2023-03-01T02:48:27;101610.34;;;-2.15;79.77
62333;BME280;48624;49.812;8.562;2023-03-01T02:51:07;101608.66;;;-1.91;78.06
62333;BME280;48624;49.812;8.562;2023-03-01T02:53:45;101611.22;;;-2.10;79.26
62333;BME280;48624;49.812;8.562;2023-03-01T02:56:15;101603.47;;;-1.94;78.78
62333;BME280;48624;49.812;8.562;2023-03-01T02:58:43;101600.91;;;-1.88;78.15
62333;BME280;48624;49.812;8.562;2023-03-01T03:01:16;101595.69;;;-1.86;78.03
62333;BME280;48624;49.812;8.562;2023-03-01T03:03:42;101594.00;;;-1.84;77.60
62333;BME280;48624;49.812;8.562;2023-03-01T03:06:08;101592.28;;;-1.73;76.86
62333;BME280;48624;49.812;8.562;2023-03-01T03:08:33;101583.63;;;-1.70;76.69
62333;BME280;48624;49.812;8.562;2023-03-01T03:10:58;101579.22;;;-1.95;78.08
62333;BME280;48624;49.812;8.562;2023-03-01T03:13:24;101569.72;;;-1.94;78.50
62333;BME280;48624;49.812;8.562;2023-03-01T03:15:54;101570.53;;;-2.06;78.70
62333;BME280;48624;49.812;8.562;2023-03-01T03:18:19;101573.13;;;-2.17;79.07
62333;BME280;48624;49.812;8.562;2023-03-01T03:20:45;101577.41;;;-2.25;80.06
62333;BME280;48624;49.812;8.562;2023-03-01T03:23:11;101572.22;;;-2.27;80.02
62333;BME280;48624;49.812;8.562;2023-03-01T03:25:36;101568.75;;;-2.32;80.78
62333;BME280;48624;49.812;8.562;2023-03-01T03:28:04;101568.78;;;-2.24;80.10
62333;BME280;48624;49.812;8.562;2023-03-01T03:30:35;101562.75;;;-2.11;79.37
62333;BME280;48624;49.812;8.562;2023-03-01T03:33:01;101560.16;;;-2.07;79.39
62333;BME280;48624;49.812;8.562;2023-03-01T03:35:29;101563.59;;;-2.12;79.29
62333;BME280;48624;49.812;8.562;2023-03-01T03:38:00;101556.66;;;-2.14;79.42
62333;BME280;48624;49.812;8.562;2023-03-01T03:40:32;101563.59;;;-2.16;80.15
62333;BME280;48624;49.812;8.562;2023-03-01T03:42:58;101559.25;;;-2.30;81.25
62333;BME280;48624;49.812;8.562;2023-03-01T03:45:23;101551.44;;;-2.30;81.19
62333;BME280;48624;49.812;8.562;2023-03-01T03:47:49;101557.53;;;-2.26;81.19
62333;BME280;48624;49.812;8.562;2023-03-01T03:50:15;101549.72;;;-2.26;81.55
62333;BME280;48624;49.812;8.562;2023-03-01T03:52:41;101546.28;;;-2.22;81.07
62333;BME280;48624;49.812;8.562;2023-03-01T03:55:09;101543.72;;;-2.11;80.07
62333;BME280;48624;49.812;8.562;2023-03-01T03:57:40;101543.72;;;-2.08;79.68
62333;BME280;48624;49.812;8.562;2023-03-01T04:00:08;101540.25;;;-2.05;80.28
62333;BME280;48624;49.812;8.562;2023-03-01T04:02:47;101547.19;;;-2.07;80.21
62333;BME280;48624;49.812;8.562;2023-03-01T04:05:15;101544.59;;;-2.03;79.91
62333;BME280;48624;49.812;8.562;2023-03-01T04:07:41;101549.81;;;-1.98;79.73
62333;BME280;48624;49.812;8.562;2023-03-01T04:10:14;101547.22;;;-1.98;79.85
62333;BME280;48624;49.812;8.562;2023-03-01T04:12:39;101544.59;;;-1.97;79.96
62333;BME280;48624;49.812;8.562;2023-03-01T04:15:06;101552.41;;;-1.89;79.20
62333;BME280;48624;49.812;8.562;2023-03-01T04:17:45;101552.41;;;-1.98;80.47
62333;BME280;48624;49.812;8.562;2023-03-01T04:20:13;101553.28;;;-1.88;79.53
62333;BME280;48624;49.812;8.562;2023-03-01T04:22:40;101558.47;;;-1.88;79.42
62333;BME280;48624;49.812;8.562;2023-03-01T04:25:06;101551.56;;;-1.75;78.32
62333;BME280;48624;49.812;8.562;2023-03-01T04:27:33;101555.88;;;-1.74;78.73
62333;BME280;48624;49.812;8.562;2023-03-01T04:29:59;101554.16;;;-1.77;78.19
62333;BME280;48624;49.812;8.562;2023-03-01T04:32:24;101553.28;;;-1.71;78.72
62333;BME280;48624;49.812;8.562;2023-03-01T04:34:50;101548.09;;;-1.70;78.88
62333;BME280;48624;49.812;8.562;2023-03-01T04:37:15;101546.38;;;-1.43;76.40
62333;BME280;48624;49.812;8.562;2023-03-01T04:39:41;101549.84;;;-1.64;78.14
62333;BME280;48624;49.812;8.562;2023-03-01T04:42:11;101549.81;;;-1.83;78.93
62333;BME280;48624;49.812;8.562;2023-03-01T04:44:36;101543.75;;;-1.75;78.79
62333;BME280;48624;49.812;8.562;2023-03-01T04:47:02;101545.50;;;-1.77;78.72
62333;BME280;48624;49.812;8.562;2023-03-01T04:49:27;101542.91;;;-1.73;78.73
62333;BME280;48624;49.812;8.562;2023-03-01T04:51:52;101552.44;;;-1.79;79.18
62333;BME280;48624;49.812;8.562;2023-03-01T04:54:17;101551.56;;;-1.78;79.24
62333;BME280;48624;49.812;8.562;2023-03-01T04:56:43;101542.03;;;-1.84;79.93
62333;BME280;48624;49.812;8.562;2023-03-01T04:59:08;101548.94;;;-1.91;80.35
62333;BME280;48624;49.812;8.562;2023-03-01T05:01:35;101551.53;;;-1.92;80.28
62333;BME280;48624;49.812;8.562;2023-03-01T05:04:01;101542.88;;;-1.88;79.64
62333;BME280;48624;49.812;8.562;2023-03-01T05:06:28;101540.28;;;-1.79;79.54
62333;BME280;48624;49.812;8.562;2023-03-01T05:08:53;101544.66;;;-1.67;78.72
62333;BME280;48624;49.812;8.562;2023-03-01T05:11:19;101533.38;;;-1.64;77.79
62333;BME280;48624;49.812;8.562;2023-03-01T05:13:44;101537.72;;;-1.54;76.97
62333;BME280;48624;49.812;8.562;2023-03-01T05:16:10;101539.44;;;-1.67;78.64
62333;BME280;48624;49.812;8.562;2023-03-01T05:18:36;101541.16;;;-1.63;78.30
62333;BME280;48624;49.812;8.562;2023-03-01T05:21:04;101537.69;;;-1.93;80.23
62333;BME280;48624;49.812;8.562;2023-03-01T05:23:31;101533.34;;;-1.77;79.62
62333;BME280;48624;49.812;8.562;2023-03-01T05:26:00;101539.44;;;-1.78;79.43
62333;BME280;48624;49.812;8.562;2023-03-01T05:28:27;101535.09;;;-1.77;79.80
62333;BME280;48624;49.812;8.562;2023-03-01T05:30:55;101523.84;;;-1.75;79.72
62333;BME280;48624;49.812;8.562;2023-03-01T05:33:21;101529.03;;;-1.64;78.66
62333;BME280;48624;49.812;8.562;2023-03-01T05:35:48;101529.06;;;-1.70;79.10
62333;BME280;48624;49.812;8.562;2023-03-01T05:38:14;101533.38;;;-1.72;80.18
62333;BME280;48624;49.812;8.562;2023-03-01T05:40:42;101526.44;;;-1.69;79.30
62333;BME280;48624;49.812;8.562;2023-03-01T05:43:09;101520.38;;;-1.68;78.98
62333;BME280;48624;49.812;8.562;2023-03-01T05:45:36;101537.72;;;-1.68;79.21
62333;BME280;48624;49.812;8.562;2023-03-01T05:48:03;101526.44;;;-1.62;78.39
62333;BME280;48624;49.812;8.562;2023-03-01T05:50:33;101523.00;;;-1.64;78.68
62333;BME280;48624;49.812;8.562;2023-03-01T05:55:28;101524.69;;;-1.85;80.40
62333;BME280;48624;49.812;8.562;2023-03-01T05:57:55;101533.38;;;-1.68;79.24
62333;BME280;48624;49.812;8.562;2023-03-01T06:00:22;101534.25;;;-1.65;79.19
62333;BME280;48624;49.812;8.562;2023-03-01T06:02:47;101529.91;;;-1.56;78.02
62333;BME280;48624;49.812;8.562;2023-03-01T06:05:13;101529.91;;;-1.60;78.33
62333;BME280;48624;49.812;8.562;2023-03-01T06:07:39;101533.38;;;-1.52;78.24
62333;BME280;48624;49.812;8.562;2023-03-01T06:10:05;101528.19;;;-1.57;77.87
62333;BME280;48624;49.812;8.562;2023-03-01T06:12:32;101527.31;;;-1.57;78.34
62333;BME280;48624;49.812;8.562;2023-03-01T06:14:58;101521.25;;;-1.53;78.19
62333;BME280;48624;49.812;8.562;2023-03-01T06:17:24;101527.31;;;-1.60;78.96
62333;BME280;48624;49.812;8.562;2023-03-01T06:19:49;101525.59;;;-1.64;79.13
62333;BME280;48624;49.812;8.562;2023-03-01T06:22:14;101529.91;;;-1.84;79.87
62333;BME280;48624;49.812;8.562;2023-03-01T06:24:40;101528.16;;;-1.85;80.52
62333;BME280;48624;49.812;8.562;2023-03-01T06:27:05;101525.56;;;-1.72;79.57
62333;BME280;48624;49.812;8.562;2023-03-01T06:29:30;101520.34;;;-1.96;80.57
62333;BME280;48624;49.812;8.562;2023-03-01T06:31:56;101525.56;;;-1.63;79.71
62333;BME280;48624;49.812;8.562;2023-03-01T06:34:21;101523.84;;;-1.62;79.87
62333;BME280;48624;49.812;8.562;2023-03-01T06:36:47;101523.00;;;-1.50;79.14
62333;BME280;48624;49.812;8.562;2023-03-01T06:39:12;101521.25;;;-1.64;79.92
62333;BME280;48624;49.812;8.562;2023-03-01T06:41:37;101517.81;;;-1.64;80.17
62333;BME280;48624;49.812;8.562;2023-03-01T06:44:03;101520.41;;;-1.50;80.04
62333;BME280;48624;49.812;8.562;2023-03-01T06:46:28;101518.66;;;-1.62;80.24
62333;BME280;48624;49.812;8.562;2023-03-01T06:48:53;101519.50;;;-1.57;80.27
62333;BME280;48624;49.812;8.562;2023-03-01T06:51:18;101521.28;;;-1.51;80.54
62333;BME280;48624;49.812;8.562;2023-03-01T06:53:45;101528.16;;;-1.35;79.73
62333;BME280;48624;49.812;8.562;2023-03-01T06:56:11;101523.88;;;-1.56;80.56
62333;BME280;48624;49.812;8.562;2023-03-01T06:58:36;101528.19;;;-1.55;81.47
62333;BME280;48624;49.812;8.562;2023-03-01T07:01:05;101522.97;;;-1.57;81.33
62333;BME280;48624;49.812;8.562;2023-03-01T07:03:31;101517.78;;;-1.33;80.62
62333;BME280;48624;49.812;8.562;2023-03-01T07:05:56;101519.50;;;-1.34;80.65
62333;BME280;48624;49.812;8.562;2023-03-01T07:08:21;101509.94;;;-1.05;79.82
62333;BME280;48624;49.812;8.562;2023-03-01T07:10:47;101511.72;;;-1.35;81.08
62333;BME280;48624;49.812;8.562;2023-03-01T07:13:12;101505.59;;;-1.11;80.50
62333;BME280;48624;49.812;8.562;2023-03-01T07:15:39;101516.91;;;-1.34;80.34
62333;BME280;48624;49.812;8.562;2023-03-01T07:18:05;101509.97;;;-1.33;80.78
62333;BME280;48624;49.812;8.562;2023-03-01T07:20:30;101505.66;;;-1.34;81.08
62333;BME280;48624;49.812;8.562;2023-03-01T07:22:55;101502.19;;;-1.32;80.86
62333;BME280;48624;49.812;8.562;2023-03-01T07:25:23;101498.69;;;-1.28;81.12
62333;BME280;48624;49.812;8.562;2023-03-01T07:27:53;101496.97;;;-1.22;80.78
62333;BME280;48624;49.812;8.562;2023-03-01T07:30:20;101495.16;;;-0.94;80.13
62333;BME280;48624;49.812;8.562;2023-03-01T07:32:45;101496.00;;;-0.92;79.91
62333;BME280;48624;49.812;8.562;2023-03-01T07:35:11;101494.28;;;-0.98;80.24
62333;BME280;48624;49.812;8.562;2023-03-01T07:37:36;101495.13;;;-0.89;80.02
62333;BME280;48624;49.812;8.562;2023-03-01T07:40:02;101496.03;;;-0.95;80.15
62333;BME280;48624;49.812;8.562;2023-03-01T07:42:27;101500.31;;;-0.83;79.66
62333;BME280;48624;49.812;8.562;2023-03-01T07:44:53;101497.69;;;-0.80;79.28
62333;BME280;48624;49.812;8.562;2023-03-01T07:47:18;101495.06;;;-0.64;78.71
62333;BME280;48624;49.812;8.562;2023-03-01T07:49:45;101484.63;;;-0.60;78.46
62333;BME280;48624;49.812;8.562;2023-03-01T07:52:11;101480.16;;;-0.33;78.09
62333;BME280;48624;49.812;8.562;2023-03-01T07:54:37;101484.38;;;-0.18;77.98
62333;BME280;48624;49.812;8.562;2023-03-01T07:57:02;101482.69;;;-0.25;76.99
62333;BME280;48624;49.812;8.562;2023-03-01T07:59:28;101473.78;;;0.07;76.55
62333;BME280;48624;49.812;8.562;2023-03-01T08:01:56;101473.84;;;0.01;77.09
62333;BME280;48624;49.812;8.562;2023-03-01T08:04:22;101465.16;;;0.02;76.56
62333;BME280;48624;49.812;8.562;2023-03-01T08:06:48;101464.97;;;0.22;74.85
62333;BME280;48624;49.812;8.562;2023-03-01T08:09:13;101465.66;;;0.45;74.72
62333;BME280;48624;49.812;8.562;2023-03-01T08:11:39;101469.09;;;0.50;73.71
62333;BME280;48624;49.812;8.562;2023-03-01T08:14:06;101468.06;;;0.63;72.18
62333;BME280;48624;49.812;8.562;2023-03-01T08:16:31;101467.09;;;0.77;71.31
62333;BME280;48624;49.812;8.562;2023-03-01T08:19:03;101466.91;;;0.92;69.71
62333;BME280;48624;49.812;8.562;2023-03-01T08:21:29;101465.28;;;0.80;71.20
62333;BME280;48624;49.812;8.562;2023-03-01T08:23:54;101465.91;;;1.06;68.35
62333;BME280;48624;49.812;8.562;2023-03-01T08:26:20;101463.34;;;0.98;68.07
62333;BME280;48624;49.812;8.562;2023-03-01T08:28:47;101456.72;;;1.44;67.47
62333;BME280;48624;49.812;8.562;2023-03-01T08:31:22;101464.75;;;1.29;66.53
62333;BME280;48624;49.812;8.562;2023-03-01T08:33:50;101457.47;;;2.11;65.43
62333;BME280;48624;49.812;8.562;2023-03-01T08:36:28;101457.84;;;1.87;64.89
62333;BME280;48624;49.812;8.562;2023-03-01T08:38:54;101455.31;;;1.79;65.13
62333;BME280;48624;49.812;8.562;2023-03-01T08:41:19;101450.53;;;2.10;64.57
62333;BME280;48624;49.812;8.562;2023-03-01T08:43:46;101441.06;;;2.01;63.30
62333;BME280;48624;49.812;8.562;2023-03-01T08:46:11;101440.50;;;2.35;61.37
62333;BME280;48624;49.812;8.562;2023-03-01T08:48:37;101433.00;;;2.15;62.85
62333;BME280;48624;49.812;8.562;2023-03-01T08:51:13;101443.13;;;2.35;62.34
62333;BME280;48624;49.812;8.562;2023-03-01T08:53:39;101428.50;;;2.72;62.13
62333;BME280;48624;49.812;8.562;2023-03-01T08:56:05;101429.31;;;2.74;61.77
62333;BME280;48624;49.812;8.562;2023-03-01T08:58:30;101422.88;;;2.92;61.31
62333;BME280;48624;49.812;8.562;2023-03-01T09:00:56;101429.56;;;3.05;60.41
62333;BME280;48624;49.812;8.562;2023-03-01T09:03:23;101421.78;;;3.04;59.14
62333;BME280;48624;49.812;8.562;2023-03-01T09:05:49;101426.22;;;2.99;58.20
62333;BME280;48624;49.812;8.562;2023-03-01T09:08:16;101419.91;;;3.09;58.06
62333;BME280;48624;49.812;8.562;2023-03-01T09:10:41;101423.81;;;3.70;54.30
62333;BME280;48624;49.812;8.562;2023-03-01T09:13:06;101421.84;;;3.40;56.72
62333;BME280;48624;49.812;8.562;2023-03-01T09:15:32;101423.81;;;3.32;56.49
62333;BME280;48624;49.812;8.562;2023-03-01T09:17:58;101411.00;;;3.57;56.08
62333;BME280;48624;49.812;8.562;2023-03-01T09:20:24;101409.31;;;3.15;57.92
62333;BME280;48624;49.812;8.562;2023-03-01T09:22:49;101405.25;;;3.79;56.35
62333;BME280;48624;49.812;8.562;2023-03-01T09:25:14;101405.91;;;3.89;55.76
62333;BME280;48624;49.812;8.562;2023-03-01T09:27:40;101401.16;;;3.67;54.81
62333;BME280;48624;49.812;8.562;2023-03-01T09:30:06;101411.69;;;3.66;55.05
62333;BME280;48624;49.812;8.562;2023-03-01T09:32:32;101392.47;;;4.01;54.44
62333;BME280;48624;49.812;8.562;2023-03-01T09:34:57;101391.91;;;3.88;54.37
62333;BME280;48624;49.812;8.562;2023-03-01T09:37:31;101378.06;;;3.83;55.39
62333;BME280;48624;49.812;8.562;2023-03-01T09:39:57;101385.16;;;3.80;55.89
62333;BME280;48624;49.812;8.562;2023-03-01T09:42:22;101384.03;;;4.23;55.54
62333;BME280;48624;49.812;8.562;2023-03-01T09:44:53;101386.59;;;3.92;54.75
62333;BME280;48624;49.812;8.562;2023-03-01T09:47:46;101377.16;;;4.52;53.02
62333;BME280;48624;49.812;8.562;2023-03-01T09:50:17;101377.94;;;4.56;52.71
62333;BME280;48624;49.812;8.562;2023-03-01T09:55:31;101374.97;;;4.37;54.13
62333;BME280;48624;49.812;8.562;2023-03-01T10:00:49;101371.16;;;4.79;52.80
62333;BME280;48624;49.812;8.562;2023-03-01T10:03:39;101365.88;;;4.80;52.34
62333;BME280;48624;49.812;8.562;2023-03-01T10:06:20;101369.75;;;5.55;51.03
62333;BME280;48624;49.812;8.562;2023-03-01T10:08:55;101365.97;;;4.77;52.90
62333;BME280;48624;49.812;8.562;2023-03-01T10:11:28;101366.88;;;5.06;52.85
62333;BME280;48624;49.812;8.562;2023-03-01T10:16:51;101366.97;;;5.60;50.48
62333;BME280;48624;49.812;8.562;2023-03-01T10:19:43;101350.31;;;5.33;49.64
62333;BME280;48624;49.812;8.562;2023-03-01T10:22:18;101360.66;;;5.66;50.04
62333;BME280;48624;49.812;8.562;2023-03-01T10:24:47;101356.50;;;5.86;49.24
62333;BME280;48624;49.812;8.562;2023-03-01T10:27:29;101347.44;;;5.67;50.00
62333;BME280;48624;49.812;8.562;2023-03-01T10:32:34;101340.34;;;5.96;47.83
62333;BME280;48624;49.812;8.562;2023-03-01T10:35:00;101339.22;;;6.31;46.37
62333;BME280;48624;49.812;8.562;2023-03-01T10:37:25;101333.16;;;6.29;47.08
62333;BME280;48624;49.812;8.562;2023-03-01T10:40:00;101335.63;;;6.57;45.98
62333;BME280;48624;49.812;8.562;2023-03-01T10:42:35;101331.69;;;6.45;45.79
62333;BME280;48624;49.812;8.562;2023-03-01T10:50:39;101330.69;;;6.96;44.88
62333;BME280;48624;49.812;8.562;2023-03-01T10:53:20;101328.75;;;7.01;44.68
62333;BME280;48624;49.812;8.562;2023-03-01T10:55:59;101311.47;;;7.81;43.37
62333;BME280;48624;49.812;8.562;2023-03-01T10:58:25;101310.72;;;7.34;44.36
62333;BME280;48624;49.812;8.562;2023-03-01T11:00:58;101295.16;;;7.71;44.53
62333;BME280;48624;49.812;8.562;2023-03-01T11:03:28;101290.34;;;7.60;44.69
62333;BME280;48624;49.812;8.562;2023-03-01T11:05:55;101285.34;;;7.10;44.52
62333;BME280;48624;49.812;8.562;2023-03-01T11:11:32;101307.38;;;7.52;42.71
62333;BME280;48624;49.812;8.562;2023-03-01T11:14:16;101289.97;;;7.90;41.98
62333;BME280;48624;49.812;8.562;2023-03-01T11:16:45;101284.53;;;8.54;41.78
62333;BME280;48624;49.812;8.562;2023-03-01T11:22:01;101266.69;;;8.19;41.13
62333;BME280;48624;49.812;8.562;2023-03-01T11:24:44;101268.66;;;7.95;42.03
62333;BME280;48624;49.812;8.562;2023-03-01T11:27:31;101254.59;;;7.95;41.70
62333;BME280;48624;49.812;8.562;2023-03-01T11:30:15;101257.75;;;8.62;40.64
62333;BME280;48624;49.812;8.562;2023-03-01T11:32:49;101249.53;;;8.49;40.90
62333;BME280;48624;49.812;8.562;2023-03-01T11:35:21;101241.75;;;8.84;40.08
62333;BME280;48624;49.812;8.562;2023-03-01T11:38:02;101241.69;;;8.47;40.87
62333;BME280;48624;49.812;8.562;2023-03-01T11:51:09;101227.22;;;8.76;39.23
62333;BME280;48624;49.812;8.562;2023-03-01T11:53:48;101220.66;;;8.65;40.07
62333;BME280;48624;49.812;8.562;2023-03-01T11:59:15;101220.38;;;9.26;38.05
62333;BME280;48624;49.812;8.562;2023-03-01T12:04:22;101215.00;;;9.63;37.29
62333;BME280;48624;49.812;8.562;2023-03-01T12:06:57;101214.97;;;10.14;36.47
62333;BME280;48624;49.812;8.562;2023-03-01T12:48:23;101125.69;;;9.50;37.73
62333;BME280;48624;49.812;8.562;2023-03-01T12:50:43;101119.91;;;10.25;36.99
62333;BME280;48624;49.812;8.562;2023-03-01T12:53:24;101119.19;;;9.40;37.82
62333;BME280;48624;49.812;8.562;2023-03-01T12:55:50;101121.44;;;9.97;37.10
62333;BME280;48624;49.812;8.562;2023-03-01T12:59:13;101110.13;;;9.62;37.60
62333;BME280;48624;49.812;8.562;2023-03-01T13:01:22;101106.72;;;9.76;37.20
62333;BME280;48624;49.812;8.562;2023-03-01T13:04:12;101099.97;;;9.70;37.46
62333;BME280;48624;49.812;8.562;2023-03-01T13:06:47;101093.06;;;9.34;37.83
62333;BME280;48624;49.812;8.562;2023-03-01T13:17:48;101087.72;;;9.51;37.91
62333;BME280;48624;49.812;8.562;2023-03-01T13:20:52;101077.50;;;10.88;35.77
62333;BME280;48624;49.812;8.562;2023-03-01T13:26:11;101079.09;;;10.76;35.31
62333;BME280;48624;49.812;8.562;2023-03-01T13:33:49;101054.84;;;11.71;33.76
62333;BME280;48624;49.812;8.562;2023-03-01T13:38:58;101052.59;;;10.76;33.91
62333;BME280;48624;49.812;8.562;2023-03-01T13:46:49;101047.81;;;10.04;37.38
62333;BME280;48624;49.812;8.562;2023-03-01T13:49:22;101048.13;;;10.62;35.61
62333;BME280;48624;49.812;8.562;2023-03-01T13:51:49;101047.72;;;11.14;34.40
62333;BME280;48624;49.812;8.562;2023-03-01T13:54:29;101039.44;;;10.44;35.49
62333;BME280;48624;49.812;8.562;2023-03-01T13:56:56;101034.31;;;10.25;37.36
62333;BME280;48624;49.812;8.562;2023-03-01T13:59:22;101036.47;;;11.10;35.21
62333;BME280;48624;49.812;8.562;2023-03-01T14:01:56;101034.75;;;10.49;35.84
62333;BME280;48624;49.812;8.562;2023-03-01T14:06:50;101035.75;;;11.79;33.40
62333;BME280;48624;49.812;8.562;2023-03-01T14:09:25;101023.16;;;12.78;32.30
62333;BME280;48624;49.812;8.562;2023-03-01T14:20:21;101028.50;;;12.38;32.28
62333;BME280;48624;49.812;8.562;2023-03-01T14:22:48;101034.00;;;11.50;33.25
62333;BME280;48624;49.812;8.562;2023-03-01T14:25:26;101019.25;;;12.03;33.01
62333;BME280;48624;49.812;8.562;2023-03-01T14:28:23;101013.06;;;11.02;34.60
62333;BME280;48624;49.812;8.562;2023-03-01T14:30:52;101009.81;;;12.12;33.16
62333;BME280;48624;49.812;8.562;2023-03-01T14:38:39;101012.63;;;11.81;33.57
62333;BME280;48624;49.812;8.562;2023-03-01T14:41:13;101013.22;;;12.41;32.06
62333;BME280;48624;49.812;8.562;2023-03-01T14:43:43;101008.91;;;11.84;32.84
62333;BME280;48624;49.812;8.562;2023-03-01T14:46:20;101003.22;;;11.19;34.08
62333;BME280;48624;49.812;8.562;2023-03-01T14:48:52;100997.78;;;10.77;34.85
62333;BME280;48624;49.812;8.562;2023-03-01T14:51:18;101005.75;;;10.77;34.25
62333;BME280;48624;49.812;8.562;2023-03-01T14:53:43;101003.22;;;11.19;33.82
62333;BME280;48624;49.812;8.562;2023-03-01T14:56:14;100997.53;;;11.40;33.87
62333;BME280;48624;49.812;8.562;2023-03-01T14:58:41;101000.28;;;11.09;34.10
62333;BME280;48624;49.812;8.562;2023-03-01T15:01:06;101004.84;;;11.92;33.55
62333;BME280;48624;49.812;8.562;2023-03-01T15:03:36;100999.63;;;11.20;33.98
62333;BME280;48624;49.812;8.562;2023-03-01T15:06:04;100998.19;;;10.85;35.21
62333;BME280;48624;49.812;8.562;2023-03-01T15:08:31;101005.84;;;11.62;33.76